createdAt,value
2022-12-18T00:01:18.922Z,2.57
2022-12-18T00:03:46.948Z,2.63
2022-12-18T00:06:15.524Z,2.64
2022-12-18T00:08:43.619Z,2.63
2022-12-18T00:11:18.357Z,2.59
2022-12-18T00:13:45.885Z,2.64
2022-12-18T00:16:14.286Z,2.68
2022-12-18T00:18:41.977Z,2.65
2022-12-18T00:21:11.589Z,2.65
2022-12-18T00:23:39.579Z,2.66
2022-12-18T00:26:09.084Z,2.67
2022-12-18T00:28:36.223Z,2.65
2022-12-18T00:31:08.310Z,2.66
2022-12-18T00:33:35.953Z,2.67
2022-12-18T00:36:07.449Z,2.68
2022-12-18T00:38:35.067Z,2.71
2022-12-18T00:41:02.553Z,2.82
2022-12-18T00:43:29.796Z,2.76
2022-12-18T00:45:56.943Z,2.74
2022-12-18T00:48:24.136Z,2.70
2022-12-18T00:50:51.878Z,2.73
2022-12-18T00:53:19.105Z,2.75
2022-12-18T00:55:46.551Z,2.72
2022-12-18T00:58:14.868Z,2.77
2022-12-18T01:00:42.434Z,2.78
2022-12-18T01:03:14.484Z,2.84
2022-12-18T01:05:43.199Z,2.84
2022-12-18T01:08:10.241Z,2.85
2022-12-18T01:10:37.409Z,2.86
2022-12-18T01:13:04.528Z,2.89
2022-12-18T01:15:31.608Z,2.93
2022-12-18T01:17:58.661Z,3.02
2022-12-18T01:20:27.804Z,2.98
2022-12-18T01:22:54.963Z,2.96
2022-12-18T01:25:22.025Z,3.04
2022-12-18T01:27:51.219Z,3.00
2022-12-18T01:30:18.271Z,3.03
2022-12-18T01:32:46.099Z,3.03
2022-12-18T01:35:13.155Z,3.06
2022-12-18T01:37:40.291Z,3.08
2022-12-18T01:40:07.875Z,3.13
2022-12-18T01:42:34.988Z,3.15
2022-12-18T01:45:07.167Z,3.15
2022-12-18T01:47:37.654Z,3.14
2022-12-18T01:50:10.225Z,3.16
2022-12-18T01:52:41.932Z,3.20
2022-12-18T01:55:10.758Z,3.19
2022-12-18T01:57:38.813Z,3.22
2022-12-18T02:00:08.794Z,3.22
2022-12-18T02:02:42.655Z,3.26
2022-12-18T02:05:11.134Z,3.27
2022-12-18T02:07:53.803Z,3.29
2022-12-18T02:10:42.658Z,3.31
2022-12-18T02:13:29.926Z,3.32
2022-12-18T02:16:11.644Z,3.35
2022-12-18T02:18:44.167Z,3.38
2022-12-18T02:21:19.164Z,3.40
2022-12-18T02:23:46.952Z,3.43
2022-12-18T02:26:13.934Z,3.43
2022-12-18T02:28:43.704Z,3.45
2022-12-18T02:31:12.818Z,3.44
2022-12-18T02:33:41.704Z,3.42
2022-12-18T02:36:10.672Z,3.46
2022-12-18T02:38:39.498Z,3.47
2022-12-18T02:41:14.053Z,3.47
2022-12-18T02:43:42.290Z,3.47
2022-12-18T02:46:28.516Z,3.47
2022-12-18T02:49:02.457Z,3.49
2022-12-18T02:51:32.914Z,3.51
2022-12-18T02:54:09.987Z,3.53
2022-12-18T02:56:51.991Z,3.54
2022-12-18T02:59:25.060Z,3.55
2022-12-18T03:02:18.318Z,3.56
2022-12-18T03:04:54.695Z,3.58
2022-12-18T03:07:35.719Z,3.61
2022-12-18T03:10:04.627Z,3.64
2022-12-18T03:12:38.972Z,3.66
2022-12-18T03:15:07.983Z,3.68
2022-12-18T03:17:38.059Z,3.69
2022-12-18T03:20:11.705Z,3.71
2022-12-18T03:22:39.376Z,3.71
2022-12-18T03:25:08.832Z,3.72
2022-12-18T03:27:39.436Z,3.72
2022-12-18T03:30:11.269Z,3.80
2022-12-18T03:32:48.422Z,3.75
2022-12-18T03:35:19.159Z,3.71
2022-12-18T03:37:46.352Z,3.69
2022-12-18T03:40:14.171Z,3.69
2022-12-18T03:42:44.355Z,3.66
2022-12-18T03:45:19.832Z,3.65
2022-12-18T03:48:07.675Z,3.63
2022-12-18T03:50:47.544Z,3.60
2022-12-18T03:53:47.150Z,3.60
2022-12-18T03:56:16.268Z,3.57
2022-12-18T03:58:44.725Z,3.55
2022-12-18T04:01:19.881Z,3.59
2022-12-18T04:03:49.183Z,3.59
2022-12-18T04:06:19.012Z,3.70
2022-12-18T04:08:47.342Z,3.65
2022-12-18T04:11:17.802Z,3.60
2022-12-18T04:13:46.355Z,3.54
2022-12-18T04:16:20.157Z,3.53
2022-12-18T04:18:50.777Z,3.47
2022-12-18T04:21:19.490Z,3.43
2022-12-18T04:23:47.947Z,3.46
2022-12-18T04:26:15.107Z,3.44
2022-12-18T04:28:58.149Z,3.45
2022-12-18T04:31:25.533Z,3.44
2022-12-18T04:33:53.180Z,3.43
2022-12-18T04:36:20.597Z,3.41
2022-12-18T04:38:48.020Z,3.53
2022-12-18T04:41:17.184Z,3.47
2022-12-18T04:43:47.362Z,3.48
2022-12-18T04:46:14.540Z,3.44
2022-12-18T04:48:41.795Z,3.45
2022-12-18T04:51:08.926Z,3.43
2022-12-18T04:53:35.965Z,3.41
2022-12-18T04:56:07.281Z,3.40
2022-12-18T04:58:35.118Z,3.40
2022-12-18T05:01:02.211Z,3.40
2022-12-18T05:03:30.908Z,3.37
2022-12-18T05:05:58.203Z,3.37
2022-12-18T05:08:25.318Z,3.38
2022-12-18T05:11:01.661Z,3.37
2022-12-18T05:13:29.471Z,3.36
2022-12-18T05:15:57.050Z,3.41
2022-12-18T05:18:24.842Z,3.34
2022-12-18T05:20:52.365Z,3.32
2022-12-18T05:23:19.861Z,3.29
2022-12-18T05:25:54.301Z,3.29
2022-12-18T05:28:22.055Z,3.27
2022-12-18T05:30:50.743Z,3.29
2022-12-18T05:33:18.704Z,3.30
2022-12-18T05:35:50.857Z,3.30
2022-12-18T05:38:17.866Z,3.32
2022-12-18T05:40:45.195Z,3.32
2022-12-18T05:43:15.384Z,3.32
2022-12-18T05:45:46.546Z,3.31
2022-12-18T05:48:13.611Z,3.31
2022-12-18T05:50:41.734Z,3.34
2022-12-18T05:53:09.205Z,3.33
2022-12-18T05:55:36.604Z,3.37
2022-12-18T05:58:04.892Z,3.35
2022-12-18T06:00:33.049Z,3.30
2022-12-18T06:03:00.291Z,3.30
2022-12-18T06:05:27.954Z,3.24
2022-12-18T06:07:55.087Z,3.29
2022-12-18T06:10:22.080Z,3.25
2022-12-18T06:12:49.355Z,3.25
2022-12-18T06:15:16.435Z,3.23
2022-12-18T06:17:44.114Z,3.19
2022-12-18T06:20:11.801Z,3.20
2022-12-18T06:22:38.803Z,3.16
2022-12-18T06:25:06.885Z,3.19
2022-12-18T06:27:34.959Z,3.21
2022-12-18T06:30:01.990Z,3.19
2022-12-18T06:32:29.505Z,3.21
2022-12-18T06:34:56.668Z,3.16
2022-12-18T06:37:27.010Z,3.15
2022-12-18T06:39:54.849Z,3.21
2022-12-18T06:42:21.899Z,3.23
2022-12-18T06:44:50.125Z,3.24
2022-12-18T06:47:17.206Z,3.26
2022-12-18T06:49:44.256Z,3.22
2022-12-18T06:52:11.402Z,3.24
2022-12-18T06:54:38.440Z,3.27
2022-12-18T06:57:05.552Z,3.28
2022-12-18T06:59:32.549Z,3.30
2022-12-18T07:01:59.695Z,3.32
2022-12-18T07:04:30.837Z,3.33
2022-12-18T07:06:58.353Z,3.31
2022-12-18T07:09:25.480Z,3.27
2022-12-18T07:11:53.696Z,3.32
2022-12-18T07:14:20.872Z,3.31
2022-12-18T07:16:47.969Z,3.32
2022-12-18T07:19:15.360Z,3.31
2022-12-18T07:21:42.562Z,3.34
2022-12-18T07:24:09.556Z,3.35
2022-12-18T07:26:36.708Z,3.47
2022-12-18T07:29:03.751Z,3.51
2022-12-18T07:31:30.868Z,3.42
2022-12-18T07:33:58.328Z,3.53
2022-12-18T07:36:25.550Z,3.51
2022-12-18T07:38:54.101Z,3.49
2022-12-18T07:41:22.127Z,3.49
2022-12-18T07:43:50.229Z,3.50
2022-12-18T07:46:17.527Z,3.52
2022-12-18T07:48:49.598Z,3.55
2022-12-18T07:51:17.816Z,3.56
2022-12-18T07:53:45.629Z,3.58
2022-12-18T07:56:31.189Z,3.61
2022-12-18T07:58:59.536Z,3.66
2022-12-18T08:01:27.227Z,3.68
2022-12-18T08:03:54.728Z,3.73
2022-12-18T08:06:23.914Z,3.73
2022-12-18T08:08:57.082Z,3.74
2022-12-18T08:11:25.446Z,3.73
2022-12-18T08:13:53.497Z,3.76
2022-12-18T08:16:21.231Z,3.87
2022-12-18T08:18:49.956Z,3.89
2022-12-18T08:21:22.200Z,3.92
2022-12-18T08:23:51.510Z,3.89
2022-12-18T08:26:21.113Z,3.94
2022-12-18T08:28:50.959Z,3.92
2022-12-18T08:31:18.691Z,3.95
2022-12-18T08:33:45.846Z,3.93
2022-12-18T08:36:14.436Z,4.00
2022-12-18T08:38:41.519Z,3.97
2022-12-18T08:41:10.381Z,3.99
2022-12-18T08:43:55.938Z,4.05
2022-12-18T08:46:26.050Z,4.07
2022-12-18T08:48:53.839Z,4.12
2022-12-18T08:51:21.416Z,4.17
2022-12-18T08:53:48.495Z,4.25
2022-12-18T08:56:16.021Z,4.24
2022-12-18T08:58:43.411Z,4.26
2022-12-18T09:01:11.802Z,4.31
2022-12-18T09:03:40.662Z,4.32
2022-12-18T09:06:08.506Z,4.32
2022-12-18T09:08:38.982Z,4.35
2022-12-18T09:11:14.154Z,4.31
2022-12-18T09:13:41.834Z,4.35
2022-12-18T09:16:09.343Z,4.46
2022-12-18T09:18:36.447Z,4.49
2022-12-18T09:21:30.961Z,4.57
2022-12-18T09:23:58.461Z,4.67
2022-12-18T09:26:27.736Z,4.55
2022-12-18T09:28:57.974Z,4.53
2022-12-18T09:31:25.957Z,4.67
2022-12-18T09:33:53.204Z,4.75
2022-12-18T09:36:21.771Z,4.76
2022-12-18T09:38:49.340Z,4.78
2022-12-18T09:41:37.264Z,4.77
2022-12-18T09:44:24.522Z,4.81
2022-12-18T09:47:16.008Z,4.84
2022-12-18T09:49:47.018Z,4.98
2022-12-18T09:52:23.904Z,4.98
2022-12-18T09:54:54.843Z,5.09
2022-12-18T09:57:24.173Z,5.15
2022-12-18T09:59:54.833Z,5.32
2022-12-18T10:02:24.245Z,5.21
2022-12-18T10:05:03.509Z,5.12
2022-12-18T10:07:50.340Z,4.99
2022-12-18T10:10:25.329Z,5.07
2022-12-18T10:13:17.242Z,5.18
2022-12-18T10:15:54.183Z,5.16
2022-12-18T10:18:37.089Z,5.18
2022-12-18T10:21:33.849Z,5.30
2022-12-18T10:24:15.656Z,5.40
2022-12-18T10:26:44.063Z,5.52
2022-12-18T10:29:14.983Z,5.47
2022-12-18T10:31:42.252Z,5.37
2022-12-18T10:34:13.185Z,5.22
2022-12-18T10:36:45.489Z,5.52
2022-12-18T10:39:18.384Z,5.58
2022-12-18T10:41:48.227Z,5.65
2022-12-18T10:44:21.214Z,5.78
2022-12-18T10:46:51.112Z,5.62
2022-12-18T10:49:40.151Z,5.56
2022-12-18T10:52:29.500Z,5.50
2022-12-18T10:55:24.747Z,5.46
2022-12-18T10:57:57.563Z,5.62
2022-12-18T11:00:33.902Z,5.85
2022-12-18T11:03:01.210Z,5.63
2022-12-18T11:05:33.081Z,5.66
2022-12-18T11:08:00.967Z,5.51
2022-12-18T11:10:54.534Z,5.43
2022-12-18T11:13:23.219Z,5.51
2022-12-18T11:15:51.291Z,5.57
2022-12-18T11:18:21.345Z,5.67
2022-12-18T11:20:59.174Z,5.66
2022-12-18T11:23:26.885Z,5.71
2022-12-18T11:26:00.071Z,5.65
2022-12-18T11:28:36.643Z,5.65
2022-12-18T11:34:34.304Z,5.57
2022-12-18T11:37:04.126Z,5.78
2022-12-18T11:39:34.443Z,5.74
2022-12-18T11:42:11.698Z,5.87
2022-12-18T11:44:53.219Z,5.71
2022-12-18T11:47:40.145Z,5.69
2022-12-18T11:50:24.094Z,5.66
2022-12-18T11:52:56.528Z,5.77
2022-12-18T11:55:31.560Z,5.81
2022-12-18T11:58:08.916Z,5.89
2022-12-18T12:00:40.772Z,5.95
2022-12-18T12:03:23.977Z,5.98
2022-12-18T12:06:06.814Z,5.94
2022-12-18T12:08:54.544Z,6.14
2022-12-18T12:11:41.495Z,6.18
2022-12-18T12:14:27.591Z,6.20
2022-12-18T12:17:09.644Z,6.15
2022-12-18T12:19:57.189Z,6.26
2022-12-18T12:22:37.117Z,6.17
2022-12-18T12:25:17.536Z,6.21
2022-12-18T12:28:04.112Z,6.23
2022-12-18T12:30:37.833Z,6.22
2022-12-18T12:33:05.087Z,6.37
2022-12-18T12:35:58.640Z,6.35
2022-12-18T12:38:58.316Z,6.45
2022-12-18T12:41:45.461Z,6.36
2022-12-18T12:44:44.156Z,6.35
2022-12-18T12:47:16.033Z,6.29
2022-12-18T12:49:50.004Z,6.36
2022-12-18T12:52:25.122Z,6.44
2022-12-18T12:54:53.093Z,6.51
2022-12-18T12:57:25.841Z,6.43
2022-12-18T12:59:59.831Z,6.46
2022-12-18T13:02:42.899Z,6.62
2022-12-18T13:05:15.939Z,6.76
2022-12-18T13:07:51.353Z,6.68
2022-12-18T13:10:21.718Z,6.51
2022-12-18T13:13:01.945Z,6.65
2022-12-18T13:15:36.750Z,6.50
2022-12-18T13:18:12.977Z,6.40
2022-12-18T13:20:53.778Z,6.52
2022-12-18T13:23:32.343Z,6.60
2022-12-18T13:26:10.031Z,6.67
2022-12-18T13:28:48.079Z,6.65
2022-12-18T13:31:35.469Z,6.58
2022-12-18T13:34:32.754Z,6.37
2022-12-18T13:37:19.788Z,6.37
2022-12-18T13:39:47.272Z,6.34
2022-12-18T13:42:35.500Z,6.30
2022-12-18T13:45:02.705Z,6.25
2022-12-18T13:47:35.956Z,6.32
2022-12-18T13:50:10.407Z,6.20
2022-12-18T13:52:40.233Z,6.23
2022-12-18T13:55:16.126Z,6.34
2022-12-18T13:57:43.353Z,6.31
2022-12-18T14:00:24.281Z,6.27
2022-12-18T14:02:51.957Z,6.18
2022-12-18T14:05:24.203Z,6.15
2022-12-18T14:07:53.079Z,6.10
2022-12-18T14:10:50.583Z,6.11
2022-12-18T14:13:09.720Z,6.13
2022-12-18T14:15:38.156Z,6.19
2022-12-18T14:18:26.661Z,6.19
2022-12-18T14:20:56.716Z,6.17
2022-12-18T14:23:42.178Z,6.13
2022-12-18T14:26:30.131Z,6.15
2022-12-18T14:29:02.137Z,6.06
2022-12-18T14:31:30.985Z,6.06
2022-12-18T14:33:58.853Z,6.24
2022-12-18T14:36:27.575Z,6.25
2022-12-18T14:38:56.441Z,6.13
2022-12-18T14:41:23.989Z,6.02
2022-12-18T14:43:55.837Z,6.13
2022-12-18T14:46:28.036Z,6.15
2022-12-18T14:48:55.689Z,6.20
2022-12-18T14:51:24.541Z,6.09
2022-12-18T14:53:57.555Z,6.07
2022-12-18T14:56:31.141Z,5.91
2022-12-18T14:59:03.271Z,5.85
2022-12-18T15:01:33.202Z,5.78
2022-12-18T15:04:07.612Z,5.77
2022-12-18T15:07:05.795Z,5.75
2022-12-18T15:09:34.469Z,5.71
2022-12-18T15:12:02.377Z,5.64
2022-12-18T15:14:56.099Z,5.67
2022-12-18T15:17:24.276Z,5.58
2022-12-18T15:19:59.553Z,5.52
2022-12-18T15:22:28.173Z,5.46
2022-12-18T15:25:05.935Z,5.37
2022-12-18T15:27:42.448Z,5.20
2022-12-18T15:30:10.805Z,5.03
2022-12-18T15:32:38.621Z,4.91
2022-12-18T15:35:14.892Z,4.77
2022-12-18T15:37:44.933Z,4.57
2022-12-18T15:40:18.641Z,4.35
2022-12-18T15:43:08.555Z,4.41
2022-12-18T15:45:39.147Z,4.07
2022-12-18T15:48:25.852Z,4.20
2022-12-18T15:50:55.368Z,4.02
2022-12-18T15:53:22.827Z,3.77
2022-12-18T15:56:12.181Z,3.83
2022-12-18T15:58:45.971Z,3.66
2022-12-18T16:01:14.336Z,3.54
2022-12-18T16:03:45.550Z,3.55
2022-12-18T16:06:14.928Z,3.37
2022-12-18T16:08:42.549Z,3.26
2022-12-18T16:11:21.077Z,3.12
2022-12-18T16:13:50.558Z,3.06
2022-12-18T16:16:22.576Z,3.00
2022-12-18T16:18:58.747Z,2.91
2022-12-18T16:21:29.423Z,2.90
2022-12-18T16:24:03.019Z,2.92
2022-12-18T16:26:30.659Z,2.84
2022-12-18T16:28:59.975Z,2.85
2022-12-18T16:31:30.174Z,2.73
2022-12-18T16:34:18.961Z,2.72
2022-12-18T16:36:46.072Z,2.69
2022-12-18T16:39:13.189Z,2.66
2022-12-18T16:41:40.461Z,2.58
2022-12-18T16:44:09.053Z,2.51
2022-12-18T16:46:38.140Z,2.49
2022-12-18T16:49:05.899Z,2.49
2022-12-18T16:51:33.429Z,2.43
2022-12-18T16:54:01.369Z,2.44
2022-12-18T16:56:30.660Z,2.37
2022-12-18T16:58:58.780Z,2.38
2022-12-18T17:01:26.526Z,2.35
2022-12-18T17:04:00.449Z,2.29
2022-12-18T17:06:28.716Z,2.28
2022-12-18T17:09:01.020Z,2.27
2022-12-18T17:11:30.433Z,2.26
2022-12-18T17:13:59.228Z,2.24
2022-12-18T17:16:27.192Z,2.18
2022-12-18T17:18:54.394Z,2.11
2022-12-18T17:21:21.575Z,2.05
2022-12-18T17:23:48.788Z,2.01
2022-12-18T17:26:15.966Z,1.96
2022-12-18T17:28:43.258Z,1.95
2022-12-18T17:31:21.405Z,1.82
2022-12-18T17:33:48.896Z,1.75
2022-12-18T17:36:16.207Z,1.67
2022-12-18T17:38:44.353Z,1.80
2022-12-18T17:41:11.808Z,1.76
2022-12-18T17:43:48.227Z,1.65
2022-12-18T17:46:15.492Z,1.62
2022-12-18T17:48:43.462Z,1.52
2022-12-18T17:51:11.180Z,1.43
2022-12-18T17:53:39.567Z,1.41
2022-12-18T17:56:09.855Z,1.34
2022-12-18T17:58:37.180Z,1.31
2022-12-18T18:01:04.780Z,1.37
2022-12-18T18:03:33.160Z,1.28
2022-12-18T18:06:03.067Z,1.23
2022-12-18T18:08:31.983Z,1.24
2022-12-18T18:11:24.824Z,1.25
2022-12-18T18:14:01.885Z,1.17
2022-12-18T18:16:29.173Z,1.24
2022-12-18T18:19:00.416Z,1.20
2022-12-18T18:21:28.199Z,1.16
2022-12-18T18:23:55.832Z,1.16
2022-12-18T18:26:23.072Z,1.10
2022-12-18T18:28:54.297Z,1.02
2022-12-18T18:31:21.547Z,0.90
2022-12-18T18:33:48.876Z,0.97
2022-12-18T18:36:17.056Z,0.98
2022-12-18T18:38:48.557Z,0.97
2022-12-18T18:41:16.722Z,0.94
2022-12-18T18:43:44.410Z,0.79
2022-12-18T18:46:13.982Z,0.83
2022-12-18T18:48:42.493Z,0.81
2022-12-18T18:51:12.285Z,0.80
2022-12-18T18:53:43.105Z,0.78
2022-12-18T18:58:59.665Z,0.79
2022-12-18T19:01:27.133Z,0.79
2022-12-18T19:03:55.165Z,0.73
2022-12-18T19:06:25.000Z,0.74
2022-12-18T19:08:53.847Z,0.73
2022-12-18T19:11:49.782Z,0.83
2022-12-18T19:14:18.154Z,0.80
2022-12-18T19:16:46.794Z,0.77
2022-12-18T19:19:16.364Z,0.77
2022-12-18T19:21:44.584Z,0.65
2022-12-18T19:24:13.562Z,0.67
2022-12-18T19:26:41.552Z,0.66
2022-12-18T19:29:09.398Z,0.65
2022-12-18T19:31:37.479Z,0.58
2022-12-18T19:34:07.065Z,0.61
2022-12-18T19:36:35.737Z,0.58
2022-12-18T19:39:07.882Z,0.50
2022-12-18T19:41:35.139Z,0.52
2022-12-18T19:44:07.570Z,0.45
2022-12-18T19:46:36.303Z,0.40
2022-12-18T19:49:10.564Z,0.44
2022-12-18T19:51:39.273Z,0.41
2022-12-18T19:54:06.673Z,0.41
2022-12-18T19:56:35.375Z,0.34
2022-12-18T19:59:05.315Z,0.46
2022-12-18T20:01:33.701Z,0.52
2022-12-18T20:04:03.376Z,0.41
2022-12-18T20:06:35.010Z,0.36
2022-12-18T20:09:04.820Z,0.32
2022-12-18T20:11:33.662Z,0.32
2022-12-18T20:14:09.951Z,0.28
2022-12-18T20:16:37.293Z,0.31
2022-12-18T20:19:06.068Z,0.36
2022-12-18T20:21:35.181Z,0.37
2022-12-18T20:24:03.674Z,0.32
2022-12-18T20:26:33.101Z,0.27
2022-12-18T20:29:01.153Z,0.28
2022-12-18T20:31:29.336Z,0.19
2022-12-18T20:34:00.251Z,0.28
2022-12-18T20:36:30.662Z,0.20
2022-12-18T20:39:01.571Z,0.22
2022-12-18T20:41:37.332Z,0.29
2022-12-18T20:44:09.843Z,0.28
2022-12-18T20:46:54.849Z,0.34
2022-12-18T20:49:24.051Z,0.21
2022-12-18T20:51:56.598Z,0.22
2022-12-18T20:54:24.924Z,0.22
2022-12-18T20:56:52.121Z,0.15
2022-12-18T20:59:20.541Z,0.18
2022-12-18T21:01:49.148Z,0.07
2022-12-18T21:04:19.389Z,-0.04
2022-12-18T21:06:52.042Z,-0.06
2022-12-18T21:09:23.040Z,0.02
2022-12-18T21:12:13.960Z,-0.01
2022-12-18T21:14:42.904Z,0.06
2022-12-18T21:17:12.114Z,0.17
2022-12-18T21:19:40.828Z,0.11
2022-12-18T21:22:10.547Z,0.08
2022-12-18T21:24:38.201Z,0.05
2022-12-18T21:27:05.665Z,-0.05
2022-12-18T21:29:36.298Z,-0.11
2022-12-18T21:32:04.092Z,-0.09
2022-12-18T21:34:33.300Z,-0.13
2022-12-18T21:37:01.734Z,-0.15
2022-12-18T21:39:30.287Z,-0.16
2022-12-18T21:42:18.084Z,-0.12
2022-12-18T21:44:48.539Z,-0.20
2022-12-18T21:47:22.753Z,-0.19
2022-12-18T21:49:53.990Z,-0.18
2022-12-18T21:52:31.108Z,-0.13
2022-12-18T21:55:06.137Z,-0.18
2022-12-18T21:57:36.037Z,-0.19
2022-12-18T22:00:04.830Z,-0.28
2022-12-18T22:02:39.637Z,-0.23
2022-12-18T22:05:07.382Z,-0.21
2022-12-18T22:07:34.749Z,-0.16
2022-12-18T22:10:02.262Z,-0.29
2022-12-18T22:12:43.429Z,-0.25
2022-12-18T22:15:21.016Z,-0.41
2022-12-18T22:17:48.959Z,-0.31
2022-12-18T22:20:16.860Z,-0.35
2022-12-18T22:22:44.783Z,-0.36
2022-12-18T22:25:11.847Z,-0.44
2022-12-18T22:27:41.572Z,-0.41
2022-12-18T22:30:10.460Z,-0.41
2022-12-18T22:32:37.545Z,-0.36
2022-12-18T22:35:10.372Z,-0.38
2022-12-18T22:37:42.459Z,-0.45
2022-12-18T22:40:18.118Z,-0.55
2022-12-18T22:42:53.127Z,-0.52
2022-12-18T22:45:20.334Z,-0.64
2022-12-18T22:47:48.086Z,-0.51
2022-12-18T22:50:15.566Z,-0.52
2022-12-18T22:52:42.816Z,-0.60
2022-12-18T22:55:10.121Z,-0.58
2022-12-18T22:57:39.323Z,-0.60
2022-12-18T23:00:09.391Z,-0.45
2022-12-18T23:02:38.022Z,-0.47
2022-12-18T23:05:05.702Z,-0.47
2022-12-18T23:07:34.299Z,-0.48
2022-12-18T23:10:01.556Z,-0.44
2022-12-18T23:12:30.199Z,-0.44
2022-12-18T23:14:57.783Z,-0.37
2022-12-18T23:17:24.977Z,-0.32
2022-12-18T23:19:52.944Z,-0.23
2022-12-18T23:22:20.568Z,-0.21
2022-12-18T23:24:47.627Z,-0.18
2022-12-18T23:27:14.982Z,-0.19
2022-12-18T23:29:42.917Z,-0.16
2022-12-18T23:32:12.807Z,-0.14
2022-12-18T23:34:41.105Z,-0.08
2022-12-18T23:37:10.429Z,0.02
2022-12-18T23:39:39.309Z,-0.01
2022-12-18T23:42:08.200Z,0.05
2022-12-18T23:44:37.103Z,0.09
2022-12-18T23:47:04.405Z,0.06
2022-12-18T23:49:31.818Z,0.08
2022-12-18T23:52:00.908Z,0.14
2022-12-18T23:54:32.921Z,0.19
2022-12-18T23:57:01.598Z,0.32
2022-12-18T23:59:30.438Z,0.30
